Time;durP1;ratioP1;P1;durP2;ratioP2;P2;SDS_P1;SDS_P2;PMS_P1;PMS_P2;Temp;Humidity;BMP_temperature;BMP_pressure;BME280_temperature;BME280_humidity;BME280_pressure;Samples;Min_cycle;Max_cycle;Signal;HPM_P1;HPM_P2
2022/01/21 00:00:37;;;;;;;4.45;2.17;;;-0.90;99.90;;;-1.03;63.58;101721.66;5039326;28;20170;-73
2022/01/21 00:03:06;;;;;;;5.68;2.80;;;-0.90;99.90;;;-1.06;64.55;101728.00;5039352;28;20194;-70
2022/01/21 00:05:34;;;;;;;4.68;2.00;;;-0.90;99.90;;;-1.08;64.32;101731.75;5039552;28;20280;-73
2022/01/21 00:08:04;;;;;;;3.53;2.42;;;-0.90;99.90;;;-1.07;63.95;101730.78;5054123;28;20252;-72
2022/01/21 00:10:32;;;;;;;8.00;2.63;;;-1.00;99.90;;;-1.07;63.47;101730.78;5037881;28;20220;-72
2022/01/21 00:13:01;;;;;;;2.63;1.40;;;-0.90;99.90;;;-1.06;63.29;101722.69;5038092;28;20224;-72
2022/01/21 00:15:31;;;;;;;6.25;1.50;;;-1.00;99.90;;;-1.08;63.49;101729.94;5037533;28;20245;-71
2022/01/21 00:18:00;;;;;;;8.55;2.13;;;-1.00;99.90;;;-1.11;63.87;101726.63;5052963;28;20213;-72
2022/01/21 00:31:34;;;;;;;6.95;1.48;;;-1.00;99.90;;;-1.18;63.43;101751.94;5035130;28;20201;-71
2022/01/21 00:34:02;;;;;;;7.95;2.20;;;-1.10;99.90;;;-1.13;62.83;101749.81;5034844;28;20658;-73
2022/01/21 00:36:32;;;;;;;7.35;1.80;;;-1.00;99.90;;;-1.14;62.93;101751.59;5036369;28;20236;-72
2022/01/21 00:39:01;;;;;;;2.75;1.52;;;-1.00;99.90;;;-1.13;63.02;101763.09;5036305;28;20217;-73
2022/01/21 00:41:34;;;;;;;8.35;2.47;;;-1.00;99.90;;;-1.15;63.13;101768.50;5036413;28;20259;-76
2022/01/21 00:44:03;;;;;;;12.13;1.60;;;-1.00;99.90;;;-1.19;63.37;101768.81;5036277;28;20174;-73
2022/01/21 00:46:33;;;;;;;3.75;1.45;;;-1.10;99.90;;;-1.24;63.33;101769.13;5035981;28;20178;-72
2022/01/21 00:49:03;;;;;;;11.25;2.28;;;-1.10;99.90;;;-1.30;63.27;101772.19;5034831;28;20485;-74
2022/01/21 00:51:32;;;;;;;4.43;1.05;;;-1.10;99.90;;;-1.26;63.53;101770.22;5035955;28;20197;-71
2022/01/21 00:54:00;;;;;;;7.63;1.30;;;-1.10;99.90;;;-1.25;63.10;101782.50;5034471;28;20193;-71
2022/01/21 00:56:28;;;;;;;9.50;2.03;;;-1.10;99.90;;;-1.23;62.89;101778.81;5034967;28;20192;-72
2022/01/21 00:58:57;;;;;;;5.32;1.30;;;-1.10;99.90;;;-1.28;63.12;101788.03;5036815;28;20721;-73
2022/01/21 01:01:25;;;;;;;3.80;1.33;;;-1.10;99.90;;;-1.25;62.91;101782.50;5035018;28;20178;-72
2022/01/21 01:03:55;;;;;;;2.83;1.70;;;-1.10;99.90;;;-1.29;63.39;101787.19;5036719;28;20232;-71
2022/01/21 01:06:24;;;;;;;2.45;1.35;;;-1.10;99.90;;;-1.33;63.81;101789.19;5036175;28;20173;-73
2022/01/21 01:08:53;;;;;;;5.38;1.80;;;-1.20;99.90;;;-1.35;63.18;101801.72;5036469;28;20311;-73
2022/01/21 01:11:31;;;;;;;4.32;1.98;;;-1.20;99.90;;;-1.25;63.29;101791.31;5035243;28;20221;-72
2022/01/21 01:22:22;;;;;;;7.18;1.45;;;-1.20;99.90;;;-1.31;63.40;101792.59;5035211;28;20206;-72
2022/01/21 01:27:40;;;;;;;6.85;2.00;;;-1.20;99.90;;;-1.31;63.74;101792.59;5034125;28;20722;-73
2022/01/21 01:30:13;;;;;;;4.93;1.45;;;-1.20;99.90;;;-1.32;62.93;101785.59;5034963;28;20177;-73
2022/01/21 01:32:44;;;;;;;7.68;1.98;;;-1.20;99.90;;;-1.31;62.85;101792.59;5035392;28;20256;-72
2022/01/21 01:35:19;;;;;;;4.18;1.52;;;-1.20;99.90;;;-1.36;63.26;101792.09;5050589;28;20208;-72
2022/01/21 01:40:41;;;;;;;3.05;1.30;;;-1.20;99.90;;;-1.45;63.33;101811.25;5011091;28;20198;-73
2022/01/21 01:51:33;;;;;;;8.35;1.80;;;-1.30;99.90;;;-1.43;63.59;101817.31;5049375;28;20228;-73
2022/01/21 01:54:07;;;;;;;2.55;1.50;;;-1.30;99.90;;;-1.43;63.87;101812.00;5034722;28;20178;-71
2022/01/21 01:56:40;;;;;;;4.97;1.65;;;-1.30;99.90;;;-1.35;63.62;101801.72;5035062;28;20173;-72
2022/01/21 01:59:09;;;;;;;5.75;2.10;;;-1.30;99.90;;;-1.37;63.35;101805.44;5050174;28;20419;-71
2022/01/21 02:01:38;;;;;;;3.03;1.30;;;-1.30;99.90;;;-1.38;62.16;101795.78;5034712;28;20528;-73
2022/01/21 02:04:07;;;;;;;4.68;1.42;;;-1.30;99.90;;;-1.41;63.69;101796.00;5033413;28;20197;-72
2022/01/21 02:06:37;;;;;;;3.75;1.20;;;-1.30;99.90;;;-1.41;62.99;101788.88;5034086;28;20209;-73
2022/01/21 02:09:05;;;;;;;2.80;1.45;;;-1.30;99.90;;;-1.43;63.78;101798.75;5034987;28;20755;-71
2022/01/21 02:11:34;;;;;;;2.47;1.50;;;-1.30;99.90;;;-1.46;63.94;101787.50;5034623;28;20224;-73
2022/01/21 02:14:07;;;;;;;4.20;1.60;;;-1.30;99.90;;;-1.60;64.45;101793.72;5034913;28;20186;-74
2022/01/21 02:16:54;;;;;;;9.93;1.60;;;-1.40;99.90;;;-1.54;63.76;101803.06;5033346;28;20567;-72
2022/01/21 02:22:15;;;;;;;3.22;2.00;;;-1.40;99.90;;;-1.60;63.76;101807.00;5049777;28;20178;-72
2022/01/21 02:24:49;;;;;;;3.55;1.55;;;-1.40;99.90;;;-1.63;64.12;101804.53;5035934;28;20644;-71
2022/01/21 02:27:18;;;;;;;3.88;1.55;;;-1.50;99.90;;;-1.60;64.07;101806.13;5032876;28;20186;-71
2022/01/21 02:29:50;;;;;;;33.20;2.75;;;-1.50;99.90;;;-1.61;64.21;101810.59;5033189;28;20234;-72
2022/01/21 02:32:22;;;;;;;2.88;1.40;;;-1.50;99.90;;;-1.67;64.76;101815.44;5033658;28;20259;-72
2022/01/21 02:34:53;;;;;;;3.05;1.30;;;-1.50;99.90;;;-1.66;64.57;101807.41;5051828;28;20182;-72
2022/01/21 02:37:24;;;;;;;3.42;1.92;;;-1.50;99.90;;;-1.70;64.64;101826.28;5037488;28;20178;-72
2022/01/21 02:39:53;;;;;;;5.22;1.33;;;-1.50;99.90;;;-1.72;64.24;101829.03;5050847;28;20659;-72
2022/01/21 02:42:21;;;;;;;3.33;1.30;;;-1.60;99.90;;;-1.76;64.84;101830.19;5033226;28;20197;-72
2022/01/21 02:44:49;;;;;;;5.45;1.30;;;-1.60;99.90;;;-1.79;65.36;101827.72;5033124;28;20289;-73
2022/01/21 02:47:18;;;;;;;7.18;2.42;;;-1.60;99.90;;;-1.78;65.04;101834.72;5032897;28;20269;-74
2022/01/21 02:49:53;;;;;;;3.75;1.10;;;-1.60;99.90;;;-1.82;65.27;101838.53;5050238;28;20189;-72
2022/01/21 02:52:27;;;;;;;4.90;1.42;;;-1.60;99.90;;;-1.87;65.37;101840.63;5032992;28;20210;-72
2022/01/21 02:54:56;;;;;;;2.88;1.40;;;-1.70;99.90;;;-1.87;65.18;101840.63;5032790;28;20260;-73
2022/01/21 02:57:24;;;;;;;3.05;1.33;;;-1.70;99.90;;;-1.89;65.91;101847.84;5034075;28;20179;-73
2022/01/21 02:59:52;;;;;;;5.88;2.35;;;-1.70;99.90;;;-1.94;65.71;101849.94;5032691;28;20189;-72
2022/01/21 03:02:21;;;;;;;3.80;1.30;;;-1.70;99.90;;;-1.86;65.36;101845.84;5032406;28;20198;-71
2022/01/21 03:04:58;;;;;;;6.43;1.90;;;-1.70;99.90;;;-1.78;64.74;101843.53;5032900;28;20565;-72
2022/01/21 03:07:28;;;;;;;6.28;1.95;;;-1.70;99.90;;;-1.80;65.29;101847.25;5034776;28;20640;-72
2022/01/21 03:09:57;;;;;;;5.68;1.42;;;-1.70;99.90;;;-1.76;64.29;101849.59;5033794;28;20189;-72
2022/01/21 03:12:25;;;;;;;7.78;2.20;;;-1.70;99.90;;;-1.75;64.88;101845.16;5033514;28;20217;-72
2022/01/21 03:14:54;;;;;;;4.53;1.08;;;-1.60;99.90;;;-1.81;64.52;101841.09;5035725;28;20178;-74
2022/01/21 03:17:22;;;;;;;7.13;1.52;;;-1.60;99.90;;;-1.83;64.87;101845.63;5035170;28;20178;-72
2022/01/21 03:19:50;;;;;;;3.63;1.60;;;-1.70;99.90;;;-1.83;65.49;101839.47;5032564;28;20182;-72
2022/01/21 03:22:19;;;;;;;3.85;1.65;;;-1.70;99.90;;;-1.86;64.37;101837.88;5032586;28;20231;-73
2022/01/21 03:24:49;;;;;;;3.92;1.02;;;-1.70;99.90;;;-1.80;64.47;101844.59;5032200;28;20181;-72
2022/01/21 03:27:17;;;;;;;15.35;2.85;;;-1.70;99.90;;;-1.74;64.32;101838.88;5032002;28;20189;-73
2022/01/21 03:29:46;;;;;;;6.68;1.50;;;-1.60;99.90;;;-1.77;64.09;101841.75;5048827;28;20649;-71
2022/01/21 03:32:15;;;;;;;7.13;1.33;;;-1.60;99.90;;;-1.79;64.70;101854.25;5049237;28;20288;-74
2022/01/21 03:34:44;;;;;;;3.55;1.60;;;-1.70;99.90;;;-1.85;65.55;101854.66;5049273;28;20201;-73
2022/01/21 03:37:12;;;;;;;2.88;1.30;;;-1.70;99.90;;;-1.90;65.01;101852.31;5033616;28;20189;-72
2022/01/21 03:39:41;;;;;;;7.07;3.72;;;-1.70;99.90;;;-1.87;65.09;101859.19;5033048;28;20241;-72
2022/01/21 03:42:11;;;;;;;4.57;1.70;;;-1.70;99.90;;;-1.97;65.67;101858.94;5032418;28;20208;-72
2022/01/21 03:44:39;;;;;;;3.92;1.55;;;-1.80;99.90;;;-2.10;66.07;101866.00;5032527;28;20194;-73
2022/01/21 03:47:08;;;;;;;8.15;2.25;;;-1.90;99.90;;;-2.03;65.50;101879.72;5032156;28;20285;-72
2022/01/21 03:49:39;;;;;;;3.25;1.50;;;-1.90;99.90;;;-2.04;65.49;101859.44;5049031;28;20641;-72
2022/01/21 03:52:10;;;;;;;8.38;1.85;;;-1.90;99.90;;;-2.08;64.88;101871.22;5032837;28;20331;-71
2022/01/21 03:54:38;;;;;;;2.53;1.40;;;-1.90;99.90;;;-2.09;65.41;101877.44;5034544;28;20641;-71
2022/01/21 03:57:07;;;;;;;7.15;1.80;;;-1.90;99.90;;;-2.21;66.10;101865.81;5040041;28;20189;-73
2022/01/21 03:59:37;;;;;;;7.90;1.73;;;-2.00;99.90;;;-2.17;65.77;101869.09;5039043;28;20213;-73
2022/01/21 04:02:07;;;;;;;4.65;1.30;;;-2.00;99.90;;;-2.20;65.18;101863.06;5039418;28;20190;-73
2022/01/21 04:04:36;;;;;;;3.15;1.67;;;-2.00;99.90;;;-2.26;65.60;101868.75;5040525;28;20186;-73
2022/01/21 04:07:07;;;;;;;4.10;1.60;;;-2.10;99.90;;;-2.32;66.07;101876.22;5042177;28;20181;-71
2022/01/21 04:09:45;;;;;;;7.32;1.65;;;-2.10;99.90;;;-2.35;66.02;101869.31;5040795;28;20197;-72
2022/01/21 04:12:14;;;;;;;4.97;2.00;;;-2.20;99.90;;;-2.41;66.31;101869.69;5040830;28;20645;-73
2022/01/21 04:14:44;;;;;;;3.33;1.50;;;-2.20;99.90;;;-2.42;65.88;101865.34;5060493;28;20220;-73
2022/01/21 04:17:12;;;;;;;4.63;2.13;;;-2.20;99.90;;;-2.55;66.47;101869.69;5042973;28;20280;-72
2022/01/21 04:19:41;;;;;;;4.82;1.33;;;-2.30;99.90;;;-2.51;66.23;101871.22;5036546;28;20221;-73
2022/01/21 04:22:11;;;;;;;6.03;1.48;;;-2.30;99.90;;;-2.53;66.07;101872.28;5036012;28;20196;-69
2022/01/21 04:24:40;;;;;;;3.08;1.42;;;-2.30;99.90;;;-2.55;65.99;101864.41;5035630;28;20574;-70
2022/01/21 04:27:09;;;;;;;2.65;1.50;;;-2.30;99.90;;;-2.55;66.03;101872.34;5035510;28;20281;-71
2022/01/21 04:29:37;;;;;;;4.25;1.80;;;-2.40;99.90;;;-2.53;65.87;101877.56;5036305;28;20213;-70
2022/01/21 04:32:11;;;;;;;4.93;1.85;;;-2.30;99.90;;;-2.56;66.10;101883.03;5102678;22;20236;-72
2022/01/21 04:34:41;;;;;;;5.53;3.15;;;-2.40;99.90;;;-2.58;65.57;101885.81;5063559;28;20255;-73
2022/01/21 04:37:16;;;;;;;9.70;1.65;;;-2.40;99.90;;;-2.64;65.72;101886.16;5026813;28;20556;-72
2022/01/21 04:40:02;;;;;;;4.30;1.48;;;-2.40;99.90;;;-2.64;65.90;101891.47;5024829;28;20328;-71
2022/01/21 04:48:21;;;;;;;5.20;1.60;;;-2.50;99.90;;;-2.69;66.12;101882.94;5184113;23;20262;-75
2022/01/21 04:50:56;;;;;;;2.90;1.50;;;-2.50;99.90;;;-2.79;67.02;101876.50;5057216;28;20192;-74
2022/01/21 04:53:27;;;;;;;2.88;1.30;;;-2.60;99.90;;;-2.71;65.76;101890.16;5059571;28;20212;-74
2022/01/21 04:56:12;;;;;;;12.50;1.98;;;-2.50;99.90;;;-2.75;66.27;101888.63;5076088;28;20198;-75
2022/01/21 04:58:43;;;;;;;2.92;1.30;;;-2.50;99.90;;;-2.72;66.22;101883.16;5077314;28;20223;-72
2022/01/21 05:01:12;;;;;;;6.05;1.85;;;-2.50;99.90;;;-2.72;65.97;101884.00;5059881;28;20199;-73
2022/01/21 05:03:45;;;;;;;4.93;1.80;;;-2.50;99.90;;;-2.71;65.74;101883.03;5075390;28;20195;-74
2022/01/21 05:06:14;;;;;;;6.13;1.50;;;-2.50;99.90;;;-2.69;65.77;101882.94;5059084;28;20229;-74
2022/01/21 05:08:46;;;;;;;9.13;2.10;;;-2.50;99.90;;;-2.75;66.01;101878.88;5068524;28;20634;-73
2022/01/21 05:11:17;;;;;;;7.93;2.20;;;-2.50;99.90;;;-2.74;66.21;101874.44;5043798;28;20192;-74
2022/01/21 05:13:55;;;;;;;3.22;1.55;;;-2.50;99.90;;;-2.75;66.08;101878.00;5063173;28;20603;-73
2022/01/21 05:16:35;;;;;;;3.83;1.85;;;-2.50;99.90;;;-2.78;66.02;101878.22;5060577;28;20204;-72
2022/01/21 05:19:14;;;;;;;3.72;1.83;;;-2.60;99.90;;;-2.87;66.46;101879.63;5044313;28;20207;-73
2022/01/21 05:22:06;;;;;;;6.30;2.13;;;-2.60;99.90;;;-2.82;65.76;101876.69;5060514;28;20204;-73
2022/01/21 05:24:41;;;;;;;2.38;1.40;;;-2.60;99.90;;;-2.81;66.18;101886.34;5047363;28;20191;-74
2022/01/21 05:27:12;;;;;;;5.32;1.65;;;-2.60;99.90;;;-2.80;66.12;101885.38;5045959;28;20284;-73
2022/01/21 05:29:47;;;;;;;6.72;1.90;;;-2.60;99.90;;;-2.80;65.93;101886.25;5052726;28;20188;-74
2022/01/21 05:32:36;;;;;;;3.73;1.47;;;-2.60;99.90;;;-2.83;66.18;101888.22;5067783;28;20439;-70
2022/01/21 05:35:25;;;;;;;7.88;2.22;;;-2.60;99.90;;;-2.85;66.08;101887.47;5074412;28;20423;-70
2022/01/21 05:38:29;;;;;;;8.05;1.67;;;-2.60;99.90;;;-2.92;66.20;101889.66;5068901;28;20220;-71
2022/01/21 05:41:18;;;;;;;5.60;1.88;;;-2.70;99.90;;;-2.97;66.70;101880.25;5058073;28;20253;-74
2022/01/21 05:44:19;;;;;;;4.38;1.52;;;-2.70;99.90;;;-3.03;66.65;101883.25;5066075;28;20196;-73
2022/01/21 05:47:07;;;;;;;3.75;2.00;;;-2.80;99.90;;;-2.99;66.87;101877.69;5046100;28;20332;-72
2022/01/21 05:50:06;;;;;;;7.60;2.08;;;-2.80;99.90;;;-2.95;67.03;101873.09;4969476;28;20203;-72
2022/01/21 05:52:49;;;;;;;2.70;1.63;;;-2.80;99.90;;;-3.07;66.96;101867.56;5058206;28;20266;-71
2022/01/21 05:55:40;;;;;;;9.90;2.45;;;-2.80;99.90;;;-3.04;66.44;101873.59;5047046;28;20185;-73
2022/01/21 05:58:17;;;;;;;6.47;1.70;;;-2.80;99.90;;;-3.09;66.72;101872.09;5075258;28;20212;-73
2022/01/21 06:00:48;;;;;;;9.35;2.60;;;-2.80;99.90;;;-3.09;66.76;101868.59;5066603;28;20180;-73
2022/01/21 06:03:17;;;;;;;4.68;2.30;;;-2.90;99.90;;;-3.17;67.02;101871.69;5083036;28;20176;-74
2022/01/21 06:05:53;;;;;;;9.07;2.00;;;-2.90;99.90;;;-3.13;67.10;101875.88;5052505;28;20200;-74
2022/01/21 06:08:22;;;;;;;4.82;2.10;;;-2.90;99.90;;;-3.11;66.67;101867.84;5056824;28;20212;-72
2022/01/21 06:11:08;;;;;;;10.27;1.80;;;-2.90;99.90;;;-3.24;67.35;101875.63;5056062;28;20272;-74
2022/01/21 06:13:37;;;;;;;3.85;1.60;;;-2.90;99.90;;;-3.14;67.35;101876.81;5054654;28;20197;-75
2022/01/21 06:16:06;;;;;;;8.20;3.05;;;-2.90;99.90;;;-3.15;66.66;101883.03;5041458;28;20184;-73
2022/01/21 06:18:35;;;;;;;4.45;2.65;;;-2.90;99.90;;;-3.03;66.64;101877.97;5074613;28;20230;-74
2022/01/21 06:21:03;;;;;;;7.15;2.17;;;-2.90;99.90;;;-3.07;67.05;101867.56;5073559;28;20192;-73
2022/01/21 06:23:33;;;;;;;3.92;2.17;;;-2.80;99.90;;;-3.01;66.83;101879.59;5075532;28;20180;-73
2022/01/21 06:26:01;;;;;;;2.78;2.17;;;-2.80;99.90;;;-3.09;67.07;101874.75;5065437;28;20185;-75
2022/01/21 06:28:30;;;;;;;4.75;2.03;;;-2.80;99.90;;;-3.04;67.57;101887.72;5041226;28;20224;-73
2022/01/21 06:30:58;;;;;;;4.75;2.10;;;-2.80;99.90;;;-3.15;67.09;101890.97;5062282;28;20275;-75
2022/01/21 06:33:27;;;;;;;13.65;2.25;;;-2.90;99.90;;;-3.11;67.87;101897.81;5036325;28;20571;-73
2022/01/21 06:35:55;;;;;;;11.52;3.15;;;-2.90;99.90;;;-3.08;67.67;101900.28;5052926;28;20235;-74
2022/01/21 06:38:27;;;;;;;2.15;1.75;;;-2.80;99.90;;;-2.98;67.00;101897.09;5053409;28;20598;-73
2022/01/21 06:40:57;;;;;;;5.53;2.20;;;-2.80;99.90;;;-2.94;67.03;101898.59;5061499;28;20184;-74
2022/01/21 06:43:26;;;;;;;6.30;2.72;;;-2.80;99.90;;;-2.93;67.34;101905.63;5075432;28;20726;-73
2022/01/21 06:45:55;;;;;;;9.95;3.28;;;-2.70;99.90;;;-2.89;67.05;101897.38;5074929;28;20422;-74
2022/01/21 06:48:25;;;;;;;8.18;4.05;;;-2.70;99.90;;;-2.87;66.98;101899.97;5075539;28;20306;-73
2022/01/21 06:50:53;;;;;;;10.32;2.78;;;-2.70;99.90;;;-2.96;67.31;101895.22;5075625;28;20187;-73
2022/01/21 06:53:22;;;;;;;9.23;3.05;;;-2.70;99.90;;;-2.89;67.48;101907.13;5075523;28;20182;-74
2022/01/21 06:55:50;;;;;;;8.15;2.60;;;-2.70;99.90;;;-2.93;68.16;101906.47;5075829;28;20192;-73
2022/01/21 06:58:20;;;;;;;4.60;3.03;;;-2.70;99.90;;;-2.85;67.10;101903.34;5075188;28;20207;-72
2022/01/21 07:00:48;;;;;;;5.13;2.42;;;-2.70;99.90;;;-2.78;67.58;101905.56;5076176;28;20193;-72
2022/01/21 07:03:17;;;;;;;8.65;1.95;;;-2.60;99.90;;;-2.78;68.07;101915.31;5073510;28;20192;-74
2022/01/21 07:05:46;;;;;;;7.18;2.05;;;-2.60;99.90;;;-2.81;67.28;101918.16;5036587;28;20191;-72
2022/01/21 07:08:16;;;;;;;4.72;1.90;;;-2.60;99.90;;;-2.75;67.53;101915.09;5054555;28;20208;-73
2022/01/21 07:10:45;;;;;;;4.97;2.03;;;-2.60;99.90;;;-2.69;67.37;101915.59;5056098;28;20192;-74
2022/01/21 07:13:14;;;;;;;7.72;2.28;;;-2.50;99.90;;;-2.71;67.88;101914.81;5054900;28;20219;-73
2022/01/21 07:15:44;;;;;;;4.53;2.70;;;-2.50;99.90;;;-2.66;67.91;101917.19;5054920;28;20546;-74
2022/01/21 07:18:12;;;;;;;5.13;2.20;;;-2.50;99.90;;;-2.66;68.35;101914.56;5056731;28;20220;-73
2022/01/21 07:20:41;;;;;;;5.78;2.15;;;-2.50;99.90;;;-2.58;68.07;101922.06;5062164;28;20181;-73
2022/01/21 07:23:09;;;;;;;14.18;1.80;;;-2.40;99.90;;;-2.51;67.76;101924.22;5061745;28;20542;-73
2022/01/21 07:25:38;;;;;;;5.97;2.45;;;-2.40;99.90;;;-2.49;68.38;101922.34;5061534;28;20189;-73
2022/01/21 07:28:06;;;;;;;11.25;2.13;;;-2.30;99.90;;;-2.55;68.33;101922.72;5061014;28;20211;-73
2022/01/21 07:30:35;;;;;;;6.88;2.90;;;-2.30;99.90;;;-2.53;68.20;101927.94;5057862;28;20189;-73
2022/01/21 07:33:05;;;;;;;8.13;3.55;;;-2.30;99.90;;;-2.52;68.31;101930.50;5056277;28;20231;-73
2022/01/21 07:35:33;;;;;;;6.55;2.42;;;-2.30;99.90;;;-2.46;68.33;101938.06;5059800;28;20300;-74
2022/01/21 07:38:12;;;;;;;9.43;1.92;;;-2.30;99.90;;;-2.46;68.66;101938.06;5060649;28;20204;-72
2022/01/21 07:40:41;;;;;;;12.23;3.28;;;-2.30;99.90;;;-2.39;68.39;101939.41;5060067;28;20254;-73
2022/01/21 07:43:10;;;;;;;6.22;3.33;;;-2.30;99.90;;;-2.42;68.87;101939.56;5063811;28;20219;-73
2022/01/21 07:45:38;;;;;;;16.35;2.88;;;-2.20;99.90;;;-2.40;68.41;101935.03;5059416;28;20195;-73
2022/01/21 07:48:09;;;;;;;7.65;3.42;;;-2.20;99.90;;;-2.45;68.89;101954.81;5053458;28;20766;-74
2022/01/21 07:50:39;;;;;;;9.07;2.80;;;-2.20;99.90;;;-2.31;68.67;101953.03;5056240;28;20212;-72
2022/01/21 07:53:08;;;;;;;6.68;3.08;;;-2.20;99.90;;;-2.22;68.68;101955.09;5057201;28;20197;-73
2022/01/21 07:55:36;;;;;;;7.30;2.88;;;-2.10;99.90;;;-2.03;68.41;101943.38;5058133;28;20200;-73
2022/01/21 07:58:05;;;;;;;6.95;1.90;;;-2.00;99.90;;;-2.09;67.64;101946.41;5063633;28;20709;-74
2022/01/21 08:00:33;;;;;;;8.95;3.90;;;-1.90;99.90;;;-1.98;68.13;101943.91;5064810;28;20284;-73
2022/01/21 08:03:02;;;;;;;11.02;3.08;;;-1.90;99.90;;;-1.93;67.45;101948.00;5065837;28;20185;-73
2022/01/21 08:05:34;;;;;;;10.65;2.80;;;-1.80;99.90;;;-1.79;67.99;101949.78;5068551;28;20173;-75
2022/01/21 08:08:04;;;;;;;7.40;2.60;;;-1.70;99.90;;;-1.81;67.86;101949.03;5064241;28;20204;-72
2022/01/21 08:10:33;;;;;;;10.70;3.17;;;-1.70;99.90;;;-1.78;67.93;101952.34;5062350;28;20189;-75
2022/01/21 08:13:02;;;;;;;4.70;2.90;;;-1.60;99.90;;;-1.61;67.86;101961.88;5062520;28;20203;-75
2022/01/21 08:15:31;;;;;;;5.40;2.63;;;-1.60;99.90;;;-1.63;68.22;101963.78;5056772;28;20193;-73
2022/01/21 08:18:00;;;;;;;12.20;2.80;;;-1.50;99.90;;;-1.54;66.70;101955.22;5057580;28;20762;-73
2022/01/21 08:20:29;;;;;;;6.13;1.75;;;-1.40;99.90;;;-1.63;66.96;101971.75;5056874;28;20235;-72
2022/01/21 08:22:59;;;;;;;5.43;2.10;;;-1.40;99.90;;;-1.56;67.95;101962.44;5048984;28;20193;-74
2022/01/21 08:25:28;;;;;;;5.32;2.58;;;-1.50;99.90;;;-1.51;67.65;101960.34;5045155;28;20181;-73
2022/01/21 08:27:56;;;;;;;13.70;3.70;;;-1.40;99.90;;;-1.48;67.87;101949.53;5056292;28;20209;-73
2022/01/21 08:30:25;;;;;;;11.75;3.10;;;-1.40;99.90;;;-1.36;67.73;101964.69;5056913;28;20200;-72
2022/01/21 08:32:53;;;;;;;7.00;2.60;;;-1.30;99.90;;;-1.39;67.21;101961.34;5056352;28;20169;-75
2022/01/21 08:35:22;;;;;;;9.15;3.88;;;-1.30;99.90;;;-1.32;67.52;101957.34;5056451;28;20225;-72
2022/01/21 08:37:52;;;;;;;7.53;3.70;;;-1.20;99.90;;;-1.22;67.50;101961.13;5056502;28;20212;-73
2022/01/21 08:40:23;;;;;;;8.40;2.63;;;-1.10;99.90;;;-1.32;67.47;101954.69;5056143;28;20212;-74
2022/01/21 08:42:52;;;;;;;8.68;2.58;;;-1.20;99.90;;;-1.16;68.12;101949.25;5056826;28;20189;-73
2022/01/21 08:45:21;;;;;;;7.78;2.63;;;-1.10;99.90;;;-1.19;66.99;101960.03;5056314;28;20646;-73
2022/01/21 08:47:51;;;;;;;13.88;2.72;;;-1.10;99.90;;;-1.27;67.39;101965.03;5038471;28;20291;-72
2022/01/21 08:50:21;;;;;;;7.65;2.72;;;-1.10;99.90;;;-1.12;67.36;101954.25;5056782;28;20188;-74
2022/01/21 08:52:55;;;;;;;4.82;2.40;;;-1.00;99.90;;;-1.09;67.30;101955.84;5056482;28;20642;-73
2022/01/21 08:55:26;;;;;;;4.65;2.65;;;-1.00;99.90;;;-1.08;67.11;101955.75;5056102;28;20702;-72
2022/01/21 08:57:54;;;;;;;12.60;2.78;;;-0.90;99.90;;;-1.16;67.12;101949.25;5055996;28;20697;-72
2022/01/21 09:00:23;;;;;;;7.15;2.45;;;-1.00;99.90;;;-1.15;67.53;101948.25;5056598;28;20653;-74
2022/01/21 09:02:53;;;;;;;4.32;2.83;;;-1.00;99.90;;;-1.16;67.18;101951.91;5056666;28;20637;-72
2022/01/21 09:05:22;;;;;;;7.15;2.38;;;-1.00;99.90;;;-1.08;67.30;101946.91;5056442;28;20193;-74
2022/01/21 09:07:50;;;;;;;7.60;2.17;;;-1.00;99.90;;;-0.99;66.37;101946.31;5056246;28;20609;-74
2022/01/21 09:10:19;;;;;;;12.18;3.72;;;-0.90;99.90;;;-0.88;67.76;101955.28;5055710;28;20264;-74
2022/01/21 09:12:48;;;;;;;4.75;2.33;;;-0.80;99.90;;;-0.81;66.67;101961.00;5055538;28;20268;-74
2022/01/21 09:15:23;;;;;;;5.47;4.82;;;-0.70;99.90;;;-0.58;66.30;101962.94;5057833;28;20193;-72
2022/01/21 09:17:55;;;;;;;6.97;3.22;;;-0.50;99.90;;;-0.69;66.07;101965.50;5056966;28;20206;-73
2022/01/21 09:20:23;;;;;;;10.90;3.20;;;-0.50;99.90;;;-0.68;66.72;101972.53;5057068;28;20718;-74
2022/01/21 09:22:52;;;;;;;8.55;2.22;;;-0.50;99.90;;;-0.63;66.73;101966.91;5056709;28;20215;-73
2022/01/21 09:25:20;;;;;;;16.13;3.40;;;-0.50;99.90;;;-0.50;65.83;101975.75;5058421;28;20181;-75
2022/01/21 09:27:50;;;;;;;11.73;3.25;;;-0.40;99.90;;;-0.25;65.85;101982.91;5059731;28;20205;-74
2022/01/21 09:30:18;;;;;;;9.52;3.40;;;-0.30;99.90;;;-0.40;65.84;101981.28;5059405;28;20185;-74
2022/01/21 09:32:47;;;;;;;7.45;3.65;;;-0.30;99.90;;;-0.39;66.02;101983.00;5060561;28;20617;-74
2022/01/21 09:35:16;;;;;;;16.73;2.42;;;-0.30;99.90;;;-0.29;65.84;101984.06;5059208;28;20243;-75
2022/01/21 09:37:44;;;;;;;8.90;4.30;;;-0.20;99.90;;;-0.07;65.61;101984.28;5058982;28;20205;-75
2022/01/21 09:40:39;;;;;;;12.48;2.55;;;-0.10;99.90;;;0.13;64.73;101982.88;5059047;28;20191;-74
2022/01/21 09:43:11;;;;;;;7.18;2.90;;;0.10;99.90;;;0.00;64.92;101990.88;5059623;28;20191;-74
2022/01/21 09:45:41;;;;;;;10.45;2.90;;;0.10;99.90;;;0.05;64.92;101975.41;5059043;28;20184;-74
2022/01/21 09:48:11;;;;;;;11.00;2.75;;;0.10;99.90;;;0.30;64.50;101969.19;5055556;28;20303;-75
2022/01/21 09:50:42;;;;;;;15.65;5.00;;;0.20;99.90;;;0.32;64.50;101964.63;5055204;28;20179;-74
2022/01/21 09:53:13;;;;;;;9.40;3.95;;;0.40;99.90;;;0.35;63.95;101959.91;5054557;28;20256;-73
2022/01/21 09:55:43;;;;;;;6.57;2.85;;;0.40;99.90;;;0.38;64.25;101959.72;5054707;28;20200;-74
2022/01/21 09:58:13;;;;;;;8.50;3.10;;;0.50;99.90;;;0.42;64.30;101955.88;5054902;28;20201;-74
2022/01/21 10:00:42;;;;;;;13.25;2.47;;;0.50;99.90;;;0.51;64.29;101967.66;5055477;28;20272;-73
2022/01/21 10:03:11;;;;;;;5.47;3.45;;;0.50;99.90;;;0.50;63.69;101968.63;5055736;28;20220;-76
2022/01/21 10:05:40;;;;;;;9.23;2.88;;;0.70;99.90;;;0.54;64.12;101969.22;5057002;28;20537;-74
2022/01/21 10:08:09;;;;;;;15.65;3.88;;;0.60;99.90;;;0.85;63.87;101972.22;5057100;28;20212;-74
2022/01/21 10:10:42;;;;;;;9.40;2.40;;;0.80;99.90;;;0.72;63.72;101981.25;5055535;28;20181;-73
2022/01/21 10:13:16;;;;;;;11.50;2.78;;;0.80;99.90;;;0.70;63.34;101969.81;5053792;28;20184;-74
2022/01/21 10:15:46;;;;;;;8.95;3.03;;;0.80;99.90;;;0.85;63.43;101969.56;5056307;28;20572;-74
2022/01/21 10:18:18;;;;;;;7.80;2.25;;;0.90;99.90;;;0.93;63.27;101968.97;5057087;28;20223;-74
2022/01/21 10:21:04;;;;;;;7.38;3.50;;;1.00;99.90;;;1.20;63.43;101964.25;5057891;28;20185;-75
2022/01/21 10:23:37;;;;;;;7.60;2.40;;;1.10;99.90;;;1.10;62.51;101957.91;5058249;28;20227;-74
2022/01/21 10:26:09;;;;;;;3.90;2.45;;;1.20;99.90;;;1.21;62.29;101979.28;5060006;28;20195;-74
2022/01/21 10:28:42;;;;;;;8.30;4.20;;;1.30;99.90;;;1.19;62.12;101983.03;5058433;28;20632;-76
2022/01/21 10:31:16;;;;;;;6.95;2.50;;;1.30;99.90;;;1.38;62.16;101982.50;5058464;28;20533;-74
2022/01/21 10:33:48;;;;;;;6.47;2.70;;;1.30;99.90;;;1.52;61.52;101984.94;5036139;28;20700;-74
2022/01/21 10:36:24;;;;;;;11.20;2.90;;;1.50;99.90;;;1.41;62.27;101988.44;5035921;28;20696;-74
2022/01/21 10:39:01;;;;;;;6.72;3.45;;;1.50;99.90;;;1.49;61.49;101979.88;5053589;28;20709;-73
2022/01/21 10:41:35;;;;;;;11.10;2.88;;;1.50;99.90;;;1.45;61.23;101978.41;5054340;28;20196;-73
2022/01/21 10:44:09;;;;;;;11.48;3.47;;;1.50;99.90;;;1.60;61.40;101987.88;5053829;28;20182;-73
2022/01/21 10:46:39;;;;;;;10.23;3.15;;;1.60;99.90;;;1.69;60.97;101981.84;5053477;28;20263;-74
2022/01/21 10:49:11;;;;;;;7.47;2.97;;;1.70;99.90;;;1.70;60.84;101984.38;5121416;22;20231;-73
2022/01/21 10:51:42;;;;;;;10.13;3.25;;;1.70;99.90;;;1.71;61.34;101974.56;5069293;28;20284;-71
2022/01/21 10:54:18;;;;;;;4.88;2.80;;;1.70;99.90;;;1.73;60.51;101983.31;5079429;28;20188;-73
2022/01/21 10:57:09;;;;;;;5.60;3.50;;;1.80;99.90;;;1.93;60.42;101985.28;5083552;28;20241;-72
2022/01/21 10:59:59;;;;;;;6.95;2.70;;;1.90;99.90;;;1.58;60.57;101981.81;5062984;28;20193;-72
2022/01/21 11:02:35;;;;;;;7.50;2.35;;;1.80;99.90;;;1.83;60.90;101983.44;5063306;28;20252;-72
2022/01/21 11:05:11;;;;;;;6.63;2.30;;;1.80;99.90;;;1.94;60.73;101981.63;5062812;28;20184;-72
2022/01/21 11:08:00;;;;;;;7.93;3.10;;;1.90;99.90;;;2.09;59.72;101988.44;5061710;28;20216;-72
2022/01/21 11:10:45;;;;;;;5.50;3.17;;;2.10;99.90;;;2.28;59.97;101984.28;5064256;28;20196;-72
2022/01/21 11:13:44;;;;;;;7.70;3.97;;;2.20;99.90;;;2.07;60.34;101982.38;5063249;28;20199;-71